Time;durP1;ratioP1;P1;durP2;ratioP2;P2;SDS_P1;SDS_P2;PMS_P1;PMS_P2;Temp;Humidity;BMP_temperature;BMP_pressure;BME280_temperature;BME280_humidity;BME280_pressure;Samples;Min_cycle;Max_cycle;Signal;HPM_P1;HPM_P2
2022/12/20 02:40:21;;;;;;;46.17;18.43;;;;;;;-2.08;100.00;101914.16;1771986;79;21082;-64
2022/12/20 02:42:50;;;;;;;46.70;19.27;;;;;;;-1.77;100.00;101912.87;1773884;79;21352;-67
2022/12/20 02:45:19;;;;;;;43.58;14.87;;;;;;;-2.24;100.00;101913.91;1712867;74;21058;-66
2022/12/20 02:48:01;;;;;;;29.13;13.80;;;;;;;-1.62;100.00;101900.59;1703256;83;21789;-63
2022/12/20 02:50:37;;;;;;;38.03;17.97;;;;;;;-1.44;98.20;101900.89;1708816;82;21094;-65
2022/12/20 05:05:31;;;;;;;14.03;6.77;;;;;;;1.15;50.59;101697.59;1681951;80;21103;-64
2022/12/20 05:07:58;;;;;;;19.60;9.63;;;;;;;1.24;51.24;101692.25;1678578;84;21079;-63
2022/12/20 05:10:25;;;;;;;15.47;8.50;;;;;;;1.65;50.73;101691.52;1688459;84;22187;-64
2022/12/20 05:12:53;;;;;;;11.13;6.63;;;;;;;1.31;49.96;101682.91;1689387;84;20958;-62
2022/12/20 05:15:21;;;;;;;19.50;8.63;;;;;;;1.53;51.08;101682.14;1689100;84;21062;-64
2022/12/20 05:17:47;;;;;;;21.97;8.07;;;;;;;1.88;48.65;101664.79;1693818;84;21027;-64
2022/12/20 05:20:14;;;;;;;18.33;8.23;;;;;;;1.44;48.61;101662.88;1692938;84;21137;-63
2022/12/20 05:28:12;;;;;;;13.23;6.07;;;;;;;1.88;48.42;101656.56;1715499;83;21094;-65
2022/12/20 05:30:39;;;;;;;13.83;6.47;;;;;;;1.71;47.21;101647.52;1714781;83;21088;-64
2022/12/20 05:33:06;;;;;;;17.77;7.67;;;;;;;2.09;44.85;101639.31;1714835;83;21088;-64
2022/12/20 05:35:33;;;;;;;16.57;7.97;;;;;;;2.57;46.64;101637.67;1714899;83;21183;-64
2022/12/20 05:38:02;;;;;;;12.97;7.27;;;;;;;2.94;44.25;101624.97;1714301;83;21061;-64
2022/12/20 05:40:32;;;;;;;13.87;7.20;;;;;;;2.08;45.93;101630.17;1733712;81;21021;-64
2022/12/20 05:42:59;;;;;;;15.63;8.23;;;;;;;2.06;45.44;101613.66;1742009;82;21029;-65
2022/12/20 05:45:29;;;;;;;16.00;7.62;;;;;;;1.76;45.51;101616.03;1741349;82;21533;-65
2022/12/20 05:47:57;;;;;;;13.90;7.53;;;;;;;2.12;45.71;101605.10;1741346;82;21569;-64
2022/12/20 05:50:25;;;;;;;13.03;7.57;;;;;;;1.80;45.97;101599.68;1742024;82;21057;-64
2022/12/20 05:53:15;;;;;;;16.33;7.43;;;;;;;2.02;45.28;101591.05;1739645;82;21057;-65
2022/12/20 05:55:48;;;;;;;16.83;7.33;;;;;;;2.09;46.25;101582.53;1741834;82;21058;-65
2022/12/20 05:58:14;;;;;;;14.27;7.30;;;;;;;2.57;44.17;101580.45;1742040;82;21054;-65
2022/12/20 06:00:43;;;;;;;16.60;6.37;;;;;;;2.43;43.77;101585.39;1740784;82;21100;-65
2022/12/20 06:03:10;;;;;;;8.87;4.90;;;;;;;2.79;43.57;101589.98;1714591;82;21041;-65
2022/12/20 06:05:38;;;;;;;14.90;6.47;;;;;;;2.38;43.22;101582.27;1714746;82;21029;-64
2022/12/20 06:08:05;;;;;;;14.33;6.43;;;;;;;2.26;43.38;101571.20;1741897;82;21029;-64
2022/12/20 06:10:37;;;;;;;10.10;5.20;;;;;;;2.69;42.93;101565.09;1741946;82;21112;-65
2022/12/20 06:13:02;;;;;;;12.70;5.90;;;;;;;2.91;41.51;101568.94;1741865;82;21143;-66
2022/12/20 06:15:29;;;;;;;17.17;8.50;;;;;;;3.10;42.51;101561.02;1723435;82;21204;-65
2022/12/20 06:17:57;;;;;;;10.90;6.45;;;;;;;3.25;40.62;101560.83;1722229;83;21031;-64
2022/12/20 06:20:23;;;;;;;8.13;5.03;;;;;;;3.43;39.92;101553.30;1722285;83;21051;-65
2022/12/20 06:22:51;;;;;;;14.38;6.83;;;;;;;3.40;39.90;101550.62;1722523;83;21099;-64
2022/12/20 06:25:18;;;;;;;13.05;4.50;;;;;;;3.91;39.01;101549.64;1711902;83;21226;-66
2022/12/20 06:27:45;;;;;;;14.27;6.37;;;;;;;3.55;38.71;101552.61;1704240;83;21087;-65
2022/12/20 06:30:14;;;;;;;11.48;4.67;;;;;;;3.27;38.64;101555.23;1699364;84;21044;-64
2022/12/20 06:32:43;;;;;;;11.45;5.28;;;;;;;3.24;39.12;101547.34;1697132;84;21154;-64
2022/12/20 06:35:10;;;;;;;13.83;6.15;;;;;;;3.61;38.54;101546.59;1699560;84;21036;-65
2022/12/20 06:37:39;;;;;;;16.87;6.33;;;;;;;4.05;37.69;101550.22;1699460;84;21035;-65
2022/12/20 06:40:09;;;;;;;10.88;5.15;;;;;;;4.12;38.43;101538.59;1699099;84;21084;-65
2022/12/20 06:42:36;;;;;;;9.48;5.28;;;;;;;4.23;37.16;101554.78;1699449;84;21116;-65
2022/12/20 06:45:04;;;;;;;14.55;7.70;;;;;;;4.15;36.58;101546.88;1699319;84;21099;-64
2022/12/20 06:47:31;;;;;;;16.02;8.30;;;;;;;4.27;39.01;101540.50;1681604;84;21626;-65
2022/12/20 06:49:58;;;;;;;10.00;4.92;;;;;;;3.78;38.05;101528.17;1699050;84;21511;-65
2022/12/20 06:52:28;;;;;;;15.08;7.00;;;;;;;3.54;38.20;101516.97;1699455;84;21137;-65
2022/12/20 06:54:55;;;;;;;15.93;6.78;;;;;;;3.81;38.95;101519.52;1699480;84;21130;-64
2022/12/20 06:57:22;;;;;;;15.15;6.90;;;;;;;3.50;37.85;101517.81;1699492;84;21615;-64
2022/12/20 06:59:50;;;;;;;17.50;8.20;;;;;;;4.08;37.23;101526.81;1699479;84;21080;-62
2022/12/20 07:02:17;;;;;;;14.23;7.22;;;;;;;4.45;37.59;101507.66;1699462;84;21192;-62
2022/12/20 07:04:43;;;;;;;9.58;5.20;;;;;;;3.66;37.16;101501.94;1699618;84;21800;-61
2022/12/20 07:07:12;;;;;;;12.18;6.08;;;;;;;3.99;37.03;101505.41;1699319;84;21012;-62
2022/12/20 07:09:40;;;;;;;17.92;7.12;;;;;;;3.79;37.14;101489.52;1699705;84;21850;-63
2022/12/20 07:12:11;;;;;;;14.73;7.28;;;;;;;3.67;37.89;101487.63;1699357;84;21040;-63
2022/12/20 07:14:38;;;;;;;15.20;6.35;;;;;;;4.06;36.20;101476.38;1699881;84;21131;-63
2022/12/20 19:33:20;;;;;;;32.07;15.03;;;;;;;5.63;64.28;100690.16;1767613;80;22717;-65
2022/12/20 19:35:47;;;;;;;39.27;18.27;;;;;;;5.32;63.11;100692.59;1723229;82;21593;-68
2022/12/20 19:38:14;;;;;;;35.38;16.90;;;;;;;5.59;62.25;100691.50;1724848;83;21593;-64
2022/12/20 19:40:40;;;;;;;35.52;17.35;;;;;;;6.23;59.83;100683.56;1724567;83;21053;-66
2022/12/20 19:43:07;;;;;;;38.00;15.75;;;;;;;6.51;58.88;100690.24;1724711;82;21045;-66
2022/12/20 19:45:39;;;;;;;37.03;17.48;;;;;;;6.84;57.08;100686.79;1724956;83;21041;-66
2022/12/20 19:48:07;;;;;;;34.20;16.25;;;;;;;6.70;55.93;100688.27;1724804;82;21001;-66
2022/12/20 19:50:34;;;;;;;34.27;15.25;;;;;;;5.98;57.40;100694.28;1724673;83;21341;-65
2022/12/20 19:53:01;;;;;;;32.88;16.50;;;;;;;6.08;57.62;100680.67;1724724;82;21040;-66
2022/12/20 19:55:29;;;;;;;35.70;16.02;;;;;;;6.64;56.20;100684.86;1724681;82;21073;-65
2022/12/20 19:57:55;;;;;;;35.45;15.65;;;;;;;6.32;56.03;100683.91;1724598;82;21547;-67
2022/12/20 20:00:22;;;;;;;38.35;15.08;;;;;;;6.86;55.04;100685.02;1724963;83;21124;-66
2022/12/20 20:02:50;;;;;;;33.98;15.70;;;;;;;6.75;54.87;100684.28;1724450;82;21131;-66
2022/12/20 20:05:17;;;;;;;35.28;17.00;;;;;;;7.09;55.26;100685.16;1724556;82;21069;-65
2022/12/20 20:07:44;;;;;;;27.17;11.45;;;;;;;6.84;54.68;100689.41;1724441;83;21834;-66
2022/12/20 20:10:10;;;;;;;37.28;16.07;;;;;;;6.61;53.90;100694.06;1724705;83;21081;-64
2022/12/20 20:12:38;;;;;;;38.17;16.57;;;;;;;6.87;54.78;100684.13;1724484;82;21049;-65
2022/12/20 20:15:07;;;;;;;41.50;18.73;;;;;;;7.49;53.68;100676.70;1748127;81;21267;-65
2022/12/20 20:17:35;;;;;;;41.37;18.85;;;;;;;7.02;53.65;100673.05;1746457;82;21025;-66
2022/12/20 20:20:02;;;;;;;34.83;16.30;;;;;;;6.83;53.99;100673.70;1746535;82;21056;-65
2022/12/20 20:22:29;;;;;;;39.35;18.42;;;;;;;6.81;55.19;100668.93;1746574;82;21221;-65
2022/12/20 20:24:55;;;;;;;42.45;18.70;;;;;;;6.53;54.94;100669.72;1746547;82;21047;-65
2022/12/20 20:27:22;;;;;;;35.05;17.15;;;;;;;6.57;55.27;100663.57;1746513;82;21157;-66
2022/12/20 20:29:50;;;;;;;45.20;20.43;;;;;;;7.30;54.05;100665.20;1746498;82;21034;-67
2022/12/20 20:32:16;;;;;;;39.73;19.23;;;;;;;7.45;52.94;100665.84;1746851;81;21094;-67
2022/12/20 20:34:43;;;;;;;42.08;20.65;;;;;;;7.31;53.78;100669.53;1745847;82;21086;-68
2022/12/20 20:37:10;;;;;;;42.80;20.52;;;;;;;7.17;53.60;100671.50;1745835;82;21071;-66
2022/12/20 20:39:36;;;;;;;45.12;18.00;;;;;;;6.70;53.81;100666.47;1746068;82;21250;-67
2022/12/20 20:42:03;;;;;;;39.48;17.57;;;;;;;7.31;53.34;100674.77;1745812;82;21318;-66
2022/12/20 20:44:30;;;;;;;40.83;19.20;;;;;;;7.04;53.39;100669.93;1745881;82;21054;-67
2022/12/20 20:46:56;;;;;;;39.42;19.05;;;;;;;6.75;54.32;100666.41;1746251;82;21090;-66
2022/12/20 20:49:23;;;;;;;41.80;18.57;;;;;;;7.33;53.85;100667.76;1746165;82;21076;-66
2022/12/20 20:51:50;;;;;;;39.80;18.15;;;;;;;6.49;54.41;100674.14;1746014;82;21934;-67
2022/12/20 20:54:16;;;;;;;39.42;17.75;;;;;;;6.71;55.64;100678.66;1745969;82;21023;-66
2022/12/20 20:56:43;;;;;;;36.17;18.07;;;;;;;6.67;55.09;100677.84;1745657;82;21054;-67
2022/12/20 20:59:09;;;;;;;34.55;15.85;;;;;;;6.79;54.65;100674.66;1745546;82;21003;-66
2022/12/20 21:01:36;;;;;;;39.27;18.30;;;;;;;6.37;56.34;100676.42;1745548;82;21079;-67
2022/12/20 21:04:04;;;;;;;38.75;17.98;;;;;;;6.32;55.68;100677.37;1745891;82;21164;-66
2022/12/20 21:06:31;;;;;;;31.07;15.72;;;;;;;6.61;55.84;100680.53;1745858;82;21110;-66
2022/12/20 21:08:58;;;;;;;36.93;17.92;;;;;;;6.65;55.81;100678.75;1745739;82;21019;-67
2022/12/20 21:11:26;;;;;;;37.80;15.80;;;;;;;7.08;53.91;100679.48;1745895;82;21023;-68
2022/12/20 21:13:53;;;;;;;39.58;18.65;;;;;;;6.39;55.95;100678.59;1735677;82;21107;-66
2022/12/20 21:16:20;;;;;;;35.25;17.20;;;;;;;6.54;54.72;100668.85;1754243;81;21027;-67
2022/12/20 21:18:52;;;;;;;31.40;16.30;;;;;;;7.32;53.71;100667.80;1754351;81;21546;-65
2022/12/20 21:21:19;;;;;;;;;;;;;;;7.19;53.91;100667.55;1757017;81;21122;-68
2022/12/20 21:23:45;;;;;;;39.13;16.27;;;;;;;6.85;54.02;100664.94;1754194;81;20161;-65
2022/12/20 21:26:13;;;;;;;35.55;16.95;;;;;;;6.99;54.65;100658.66;1754432;80;21657;-66
2022/12/20 21:28:41;;;;;;;40.50;18.17;;;;;;;7.23;53.55;100665.32;1754186;81;21126;-66
2022/12/20 21:31:10;;;;;;;42.50;18.87;;;;;;;7.34;53.00;100668.66;1754316;81;21050;-66
2022/12/20 21:33:37;;;;;;;49.50;21.75;;;;;;;7.46;53.26;100668.91;1735653;81;21039;-65
2022/12/20 21:36:07;;;;;;;42.78;18.98;;;;;;;7.25;52.92;100669.64;1753976;81;21514;-66
